createdAt,value
2018-12-12T00:01:25.212Z,92.11
2018-12-12T00:03:52.810Z,91.72
2018-12-12T00:06:20.536Z,92.84
2018-12-12T00:08:48.079Z,91.86
2018-12-12T00:11:15.654Z,90.40
2018-12-12T00:13:43.173Z,91.49
2018-12-12T00:16:10.727Z,92.15
2018-12-12T00:18:38.358Z,92.15
2018-12-12T00:21:06.075Z,92.11
2018-12-12T00:23:33.568Z,91.67
2018-12-12T00:26:01.281Z,90.60
2018-12-12T00:28:28.883Z,91.17
2018-12-12T00:30:56.607Z,92.14
2018-12-12T00:33:24.137Z,93.82
2018-12-12T00:35:52.806Z,93.79
2018-12-12T00:38:20.339Z,90.59
2018-12-12T00:40:47.909Z,89.76
2018-12-12T00:43:15.586Z,89.85
2018-12-12T00:45:43.109Z,91.55
2018-12-12T00:48:10.671Z,91.12
2018-12-12T00:50:38.386Z,90.32
2018-12-12T00:53:05.971Z,92.49
2018-12-12T00:55:33.545Z,92.55
2018-12-12T00:58:01.298Z,93.08
2018-12-12T01:00:28.857Z,93.58
2018-12-12T01:02:56.448Z,93.69
2018-12-12T01:05:23.973Z,92.74
2018-12-12T01:07:51.602Z,93.51
2018-12-12T01:10:19.234Z,93.02
2018-12-12T01:12:46.817Z,92.53
2018-12-12T01:15:14.452Z,93.08
2018-12-12T01:17:41.966Z,92.57
2018-12-12T01:20:09.649Z,91.76
2018-12-12T01:22:37.248Z,90.86
2018-12-12T01:25:04.960Z,91.08
2018-12-12T01:27:32.555Z,89.72
2018-12-12T01:30:00.150Z,91.11
2018-12-12T01:32:27.770Z,91.37
2018-12-12T01:34:55.341Z,90.17
2018-12-12T01:37:23.142Z,90.37
2018-12-12T01:39:50.956Z,91.97
2018-12-12T01:42:18.514Z,92.60
2018-12-12T01:44:46.051Z,94.27
2018-12-12T01:47:14.528Z,93.39
2018-12-12T01:49:42.094Z,94.20
2018-12-12T01:52:09.613Z,95.29
2018-12-12T01:54:37.236Z,94.74
2018-12-12T01:57:04.783Z,95.81
2018-12-12T01:59:32.369Z,96.93
2018-12-12T02:02:00.007Z,97.33
2018-12-12T02:04:27.550Z,96.71
2018-12-12T02:06:55.112Z,95.33
2018-12-12T02:09:22.900Z,95.70
2018-12-12T02:11:50.477Z,95.85
2018-12-12T02:14:18.130Z,95.88
2018-12-12T02:16:45.773Z,95.59
2018-12-12T02:19:14.221Z,94.69
2018-12-12T02:21:41.807Z,95.33
2018-12-12T02:24:09.354Z,95.18
2018-12-12T02:26:36.961Z,95.43
2018-12-12T02:29:04.700Z,93.83
2018-12-12T02:31:32.283Z,93.30
2018-12-12T02:33:59.839Z,93.82
2018-12-12T02:36:27.479Z,93.69
2018-12-12T02:38:55.226Z,93.88
2018-12-12T02:41:22.895Z,93.99
2018-12-12T02:43:51.780Z,93.79
2018-12-12T02:46:19.707Z,94.40
2018-12-12T02:48:47.215Z,94.38
2018-12-12T02:51:14.734Z,94.10
2018-12-12T02:53:42.327Z,93.25
2018-12-12T02:56:09.954Z,93.22
2018-12-12T02:58:37.623Z,93.81
2018-12-12T03:01:05.255Z,93.68
2018-12-12T03:03:32.882Z,93.67
2018-12-12T03:06:00.660Z,93.07
2018-12-12T03:08:28.350Z,93.37
2018-12-12T03:10:55.899Z,92.32
2018-12-12T03:13:23.465Z,92.18
2018-12-12T03:15:51.139Z,93.30
2018-12-12T03:18:18.778Z,93.60
2018-12-12T03:20:46.301Z,93.44
2018-12-12T03:23:14.630Z,92.39
2018-12-12T03:25:42.304Z,92.66
2018-12-12T03:28:09.833Z,92.63
2018-12-12T03:30:37.408Z,92.71
2018-12-12T03:33:05.050Z,91.68
2018-12-12T03:35:32.620Z,91.44
2018-12-12T03:38:00.243Z,92.73
2018-12-12T03:40:28.081Z,92.72
2018-12-12T03:42:56.023Z,92.87
2018-12-12T03:45:23.591Z,92.75
2018-12-12T03:47:51.093Z,92.38
2018-12-12T03:50:18.815Z,92.50
2018-12-12T03:52:46.454Z,92.22
2018-12-12T03:55:14.042Z,91.76
2018-12-12T03:57:41.718Z,90.97
2018-12-12T04:00:09.582Z,90.93
2018-12-12T04:02:37.245Z,92.69
2018-12-12T04:05:05.213Z,92.34
2018-12-12T04:07:32.870Z,92.13
2018-12-12T04:10:00.481Z,92.02
2018-12-12T04:12:28.035Z,90.89
2018-12-12T04:14:55.624Z,89.81
2018-12-12T04:17:23.159Z,90.46
2018-12-12T04:19:50.924Z,91.18
2018-12-12T04:22:18.964Z,90.72
2018-12-12T04:24:46.929Z,90.76
2018-12-12T04:27:14.581Z,90.52
2018-12-12T04:29:42.097Z,90.22
2018-12-12T04:32:09.665Z,89.69
2018-12-12T04:34:37.336Z,90.29
2018-12-12T04:37:04.967Z,90.40
2018-12-12T04:39:32.583Z,90.32
2018-12-12T04:42:00.185Z,89.82
2018-12-12T04:44:27.776Z,89.74
2018-12-12T04:46:55.303Z,90.02
2018-12-12T04:49:22.989Z,90.04
2018-12-12T04:51:50.536Z,89.70
2018-12-12T04:54:18.144Z,90.97
2018-12-12T04:56:45.712Z,91.23
2018-12-12T04:59:13.514Z,90.96
2018-12-12T05:01:41.036Z,89.93
2018-12-12T05:04:08.666Z,90.27
2018-12-12T05:06:36.197Z,89.93
2018-12-12T05:09:05.547Z,89.94
2018-12-12T05:11:33.390Z,90.37
2018-12-12T05:14:00.959Z,90.32
2018-12-12T05:16:28.519Z,90.60
2018-12-12T05:18:56.078Z,90.77
2018-12-12T05:21:23.720Z,90.99
2018-12-12T05:23:51.478Z,91.21
2018-12-12T05:26:19.276Z,91.02
2018-12-12T05:28:46.917Z,91.01
2018-12-12T05:31:14.668Z,91.37
2018-12-12T05:33:42.246Z,91.43
2018-12-12T05:36:10.020Z,90.91
2018-12-12T05:38:37.583Z,91.72
2018-12-12T05:41:05.399Z,92.15
2018-12-12T05:43:33.240Z,91.75
2018-12-12T05:46:01.285Z,91.91
2018-12-12T05:48:28.938Z,92.86
2018-12-12T05:50:56.695Z,93.39
2018-12-12T05:53:24.418Z,95.38
2018-12-12T05:55:52.136Z,96.04
2018-12-12T05:58:19.659Z,95.36
2018-12-12T06:00:47.359Z,96.38
2018-12-12T06:03:14.913Z,96.50
2018-12-12T06:05:42.530Z,96.43
2018-12-12T06:08:10.120Z,96.51
2018-12-12T06:10:37.709Z,96.66
2018-12-12T06:13:05.405Z,96.27
2018-12-12T06:15:33.434Z,97.01
2018-12-12T06:18:01.026Z,96.44
2018-12-12T06:20:29.209Z,96.99
2018-12-12T06:22:57.557Z,96.64
2018-12-12T06:25:25.509Z,96.87
2018-12-12T06:27:53.529Z,96.74
2018-12-12T06:30:21.215Z,97.12
2018-12-12T06:32:48.755Z,97.60
2018-12-12T06:35:16.468Z,97.85
2018-12-12T06:37:44.021Z,97.73
2018-12-12T06:40:11.582Z,96.28
2018-12-12T06:42:39.158Z,96.87
2018-12-12T06:45:06.966Z,95.99
2018-12-12T06:47:34.537Z,95.67
2018-12-12T06:50:02.101Z,95.11
2018-12-12T06:52:29.676Z,95.00
2018-12-12T06:54:57.314Z,93.40
2018-12-12T06:57:25.399Z,92.68
2018-12-12T06:59:53.057Z,93.40
2018-12-12T07:02:20.595Z,94.12
2018-12-12T07:04:48.471Z,95.07
2018-12-12T07:07:16.994Z,94.99
2018-12-12T07:09:45.214Z,94.98
2018-12-12T07:12:13.629Z,94.53
2018-12-12T07:14:41.214Z,94.65
2018-12-12T07:17:08.852Z,93.68
2018-12-12T07:19:36.783Z,93.32
2018-12-12T07:22:04.552Z,92.98
2018-12-12T07:24:32.311Z,92.67
2018-12-12T07:26:59.937Z,92.53
2018-12-12T07:29:28.195Z,92.60
2018-12-12T07:31:56.323Z,92.79
2018-12-12T07:34:23.863Z,92.89
2018-12-12T07:36:51.441Z,93.16
2018-12-12T07:39:19.177Z,92.88
2018-12-12T07:41:46.919Z,92.60
2018-12-12T07:44:14.462Z,91.44
2018-12-12T07:46:42.435Z,91.01
2018-12-12T07:49:10.321Z,90.63
2018-12-12T07:51:37.838Z,91.03
2018-12-12T07:54:05.423Z,90.28
2018-12-12T07:56:33.085Z,89.69
2018-12-12T07:59:00.626Z,89.00
2018-12-12T08:01:28.214Z,87.75
2018-12-12T08:03:55.969Z,88.23
2018-12-12T08:06:23.537Z,88.10
2018-12-12T08:08:51.211Z,88.56
2018-12-12T08:11:18.787Z,87.85
2018-12-12T08:13:46.313Z,86.47
2018-12-12T08:16:14.017Z,86.96
2018-12-12T08:18:42.033Z,86.40
2018-12-12T08:21:09.675Z,85.24
2018-12-12T08:23:37.365Z,84.95
2018-12-12T08:26:05.197Z,85.04
2018-12-12T08:28:32.812Z,85.48
2018-12-12T08:31:00.797Z,85.18
2018-12-12T08:33:28.445Z,85.79
2018-12-12T08:35:55.986Z,86.31
2018-12-12T08:38:23.589Z,86.17
2018-12-12T08:40:51.205Z,85.61
2018-12-12T08:43:18.757Z,86.39
2018-12-12T08:45:46.687Z,86.70
2018-12-12T08:48:14.293Z,87.20
2018-12-12T08:50:41.815Z,85.77
2018-12-12T08:53:09.437Z,84.31
2018-12-12T08:55:37.058Z,85.38
2018-12-12T08:58:04.645Z,85.58
2018-12-12T09:00:32.178Z,84.95
2018-12-12T09:03:00.420Z,84.44
2018-12-12T09:05:27.972Z,84.94
2018-12-12T09:07:56.033Z,84.19
2018-12-12T09:10:23.585Z,83.64
2018-12-12T09:12:51.137Z,83.69
2018-12-12T09:15:18.665Z,82.91
2018-12-12T09:17:46.399Z,83.46
2018-12-12T09:20:14.121Z,83.16
2018-12-12T09:22:41.650Z,82.96
2018-12-12T09:25:09.195Z,82.08
2018-12-12T09:27:36.757Z,82.12
2018-12-12T09:30:04.865Z,80.83
2018-12-12T09:32:32.409Z,81.67
2018-12-12T09:34:59.961Z,80.46
2018-12-12T09:37:27.454Z,82.27
2018-12-12T09:39:55.147Z,81.09
2018-12-12T09:42:23.371Z,80.57
2018-12-12T09:44:50.936Z,79.70
2018-12-12T09:47:18.707Z,79.88
2018-12-12T09:49:46.263Z,80.19
2018-12-12T09:52:14.051Z,78.42
2018-12-12T09:54:41.699Z,77.88
2018-12-12T09:57:09.247Z,79.16
2018-12-12T09:59:36.808Z,77.70
2018-12-12T10:02:04.383Z,76.28
2018-12-12T10:04:31.881Z,76.36
2018-12-12T10:06:59.381Z,76.15
2018-12-12T10:09:26.955Z,77.03
2018-12-12T10:11:54.537Z,77.89
2018-12-12T10:14:22.167Z,78.00
2018-12-12T10:16:49.736Z,77.14
2018-12-12T10:19:17.342Z,76.07
2018-12-12T10:21:45.622Z,75.03
2018-12-12T10:24:14.036Z,75.13
2018-12-12T10:26:41.812Z,74.57
2018-12-12T10:29:09.710Z,74.84
2018-12-12T10:31:37.237Z,74.05
2018-12-12T10:34:04.830Z,73.73
2018-12-12T10:36:32.337Z,73.29
2018-12-12T10:38:59.869Z,71.57
2018-12-12T10:41:27.561Z,71.71
2018-12-12T10:43:55.121Z,70.68
2018-12-12T10:46:22.719Z,70.86
2018-12-12T10:48:50.555Z,72.09
2018-12-12T10:51:18.143Z,72.20
2018-12-12T10:53:45.734Z,70.45
2018-12-12T10:56:13.247Z,71.09
2018-12-12T10:58:40.785Z,71.56
2018-12-12T11:01:13.778Z,71.74
2018-12-12T11:03:44.406Z,73.36
2018-12-12T11:06:12.175Z,71.49
2018-12-12T11:08:39.759Z,69.13
2018-12-12T11:11:07.378Z,67.84
2018-12-12T11:13:35.068Z,67.92
2018-12-12T11:16:02.743Z,68.37
2018-12-12T11:18:30.307Z,66.23
2018-12-12T11:20:57.856Z,67.84
2018-12-12T11:23:25.638Z,67.84
2018-12-12T11:25:53.399Z,69.62
2018-12-12T11:28:20.918Z,69.54
2018-12-12T11:30:48.581Z,69.53
2018-12-12T11:33:16.091Z,66.85
2018-12-12T11:35:43.696Z,68.38
2018-12-12T11:38:11.245Z,68.11
2018-12-12T11:40:38.926Z,69.89
2018-12-12T11:43:06.486Z,69.53
2018-12-12T11:45:34.705Z,66.38
2018-12-12T11:48:02.344Z,67.47
2018-12-12T11:50:29.902Z,68.69
2018-12-12T11:52:57.448Z,69.76
2018-12-12T11:55:25.020Z,69.66
2018-12-12T11:57:52.584Z,70.17
2018-12-12T12:00:20.245Z,69.81
2018-12-12T12:02:47.906Z,68.26
2018-12-12T12:05:15.485Z,67.45
2018-12-12T12:07:43.095Z,68.58
2018-12-12T12:10:11.194Z,67.14
2018-12-12T12:12:38.766Z,67.92
2018-12-12T12:15:06.868Z,67.66
2018-12-12T12:17:34.576Z,67.21
2018-12-12T12:20:02.241Z,65.70
2018-12-12T12:22:29.783Z,65.47
2018-12-12T12:24:57.578Z,66.10
2018-12-12T12:27:25.240Z,66.81
2018-12-12T12:29:52.935Z,65.82
2018-12-12T12:32:20.607Z,66.05
2018-12-12T12:34:48.239Z,67.81
2018-12-12T12:37:15.868Z,66.39
2018-12-12T12:39:43.427Z,67.98
2018-12-12T12:42:10.975Z,67.79
2018-12-12T12:44:38.720Z,68.26
2018-12-12T12:47:06.477Z,67.00
2018-12-12T12:49:34.215Z,67.91
2018-12-12T12:52:01.810Z,68.53
2018-12-12T12:54:29.911Z,69.26
2018-12-12T12:56:57.426Z,68.77
2018-12-12T12:59:25.037Z,68.36
2018-12-12T13:01:53.514Z,69.61
2018-12-12T13:04:21.049Z,69.60
2018-12-12T13:06:48.753Z,70.27
2018-12-12T13:09:16.406Z,69.71
2018-12-12T13:11:44.289Z,69.13
2018-12-12T13:14:12.190Z,69.04
2018-12-12T13:16:39.913Z,69.46
2018-12-12T13:19:07.699Z,70.28
2018-12-12T13:21:35.466Z,67.91
2018-12-12T13:24:03.061Z,68.56
2018-12-12T13:26:30.780Z,68.45
2018-12-12T13:28:58.440Z,67.67
2018-12-12T13:31:26.211Z,68.32
2018-12-12T13:33:53.844Z,69.00
2018-12-12T13:36:21.420Z,67.75
2018-12-12T13:38:48.980Z,68.06
2018-12-12T13:41:16.620Z,67.09
2018-12-12T13:43:44.183Z,66.43
2018-12-12T13:46:12.767Z,67.21
2018-12-12T13:48:40.425Z,67.75
2018-12-12T13:51:08.007Z,66.12
2018-12-12T13:53:35.511Z,67.03
2018-12-12T13:56:03.119Z,67.83
2018-12-12T13:58:30.789Z,67.09
2018-12-12T14:00:58.335Z,66.10
2018-12-12T14:03:25.910Z,67.19
2018-12-12T14:05:53.499Z,68.10
2018-12-12T14:08:21.217Z,68.50
2018-12-12T14:10:48.769Z,69.70
2018-12-12T14:13:16.348Z,70.21
2018-12-12T14:15:43.863Z,69.59
2018-12-12T14:18:11.525Z,70.58
2018-12-12T14:20:39.275Z,69.55
2018-12-12T14:23:06.856Z,71.37
2018-12-12T14:25:34.546Z,71.72
2018-12-12T14:28:02.085Z,70.94
2018-12-12T14:30:29.662Z,71.58
2018-12-12T14:32:57.250Z,71.74
2018-12-12T14:35:24.895Z,71.65
2018-12-12T14:37:52.427Z,71.16
2018-12-12T14:40:20.021Z,71.60
2018-12-12T14:42:48.445Z,72.27
2018-12-12T14:45:15.978Z,72.37
2018-12-12T14:47:43.527Z,72.64
2018-12-12T14:50:11.038Z,73.56
2018-12-12T14:52:38.611Z,74.12
2018-12-12T14:55:06.227Z,74.60
2018-12-12T14:57:33.971Z,73.95
2018-12-12T15:00:01.672Z,73.23
2018-12-12T15:02:29.297Z,73.66
2018-12-12T15:04:57.097Z,73.40
2018-12-12T15:07:24.605Z,73.78
2018-12-12T15:09:52.219Z,74.52
2018-12-12T15:12:19.897Z,75.00
2018-12-12T15:14:47.621Z,75.04
2018-12-12T15:17:15.361Z,75.42
2018-12-12T15:19:43.521Z,75.17
2018-12-12T15:22:13.361Z,76.24
2018-12-12T15:24:40.934Z,76.27
2018-12-12T15:27:08.450Z,76.64
2018-12-12T15:29:36.012Z,75.76
2018-12-12T15:32:03.869Z,76.48
2018-12-12T15:34:31.453Z,76.69
2018-12-12T15:36:59.111Z,75.84
2018-12-12T15:39:26.697Z,75.64
2018-12-12T15:41:54.231Z,75.90
2018-12-12T15:44:21.898Z,75.79
2018-12-12T15:46:49.420Z,76.90
2018-12-12T15:49:17.557Z,76.96
2018-12-12T15:51:45.169Z,76.33
2018-12-12T15:54:12.899Z,76.50
2018-12-12T15:56:40.446Z,76.76
2018-12-12T15:59:08.145Z,75.74
2018-12-12T16:01:35.920Z,75.84
2018-12-12T16:04:03.802Z,76.13
2018-12-12T16:06:31.436Z,75.98
2018-12-12T16:08:58.942Z,75.36
2018-12-12T16:11:26.566Z,75.56
2018-12-12T16:13:54.217Z,75.80
2018-12-12T16:16:21.812Z,75.17
2018-12-12T16:18:49.367Z,75.86
2018-12-12T16:21:16.905Z,75.46
2018-12-12T16:23:44.433Z,75.37
2018-12-12T16:26:12.210Z,75.99
2018-12-12T16:28:39.741Z,75.63
2018-12-12T16:31:07.455Z,77.40
2018-12-12T16:33:35.005Z,77.16
2018-12-12T16:36:02.754Z,77.04
2018-12-12T16:38:30.263Z,77.10
2018-12-12T16:40:57.797Z,77.41
2018-12-12T16:43:25.332Z,75.65
2018-12-12T16:45:52.846Z,76.40
2018-12-12T16:48:21.021Z,76.65
2018-12-12T16:50:48.574Z,76.61
2018-12-12T16:53:16.088Z,76.68
2018-12-12T16:55:43.660Z,76.23
2018-12-12T16:58:11.390Z,76.63
2018-12-12T17:00:39.006Z,77.08
2018-12-12T17:03:06.667Z,77.79
2018-12-12T17:05:34.176Z,77.23
2018-12-12T17:08:01.808Z,77.06
2018-12-12T17:10:29.430Z,77.64
2018-12-12T17:12:57.151Z,77.09
2018-12-12T17:15:24.645Z,77.34
2018-12-12T17:17:52.197Z,77.68
2018-12-12T17:20:19.759Z,78.08
2018-12-12T17:22:47.313Z,78.88
2018-12-12T17:25:14.972Z,78.97
2018-12-12T17:27:42.619Z,79.16
2018-12-12T17:30:10.382Z,78.83
2018-12-12T17:32:38.025Z,78.69
2018-12-12T17:35:08.823Z,79.08
2018-12-12T17:37:35.255Z,78.92
2018-12-12T17:40:03.120Z,79.30
2018-12-12T17:42:30.671Z,79.09
2018-12-12T17:44:58.277Z,79.26
2018-12-12T17:47:26.081Z,78.08
2018-12-12T17:49:53.648Z,78.12
2018-12-12T17:52:21.195Z,77.33
2018-12-12T17:54:48.742Z,76.83
2018-12-12T17:57:16.353Z,77.61
2018-12-12T17:59:43.875Z,77.26
2018-12-12T18:02:11.905Z,77.71
2018-12-12T18:04:39.532Z,76.78
2018-12-12T18:07:07.263Z,76.60
2018-12-12T18:09:34.937Z,76.70
2018-12-12T18:12:02.752Z,77.15
2018-12-12T18:14:30.495Z,77.61
2018-12-12T18:16:58.175Z,78.47
2018-12-12T18:19:25.785Z,78.40
2018-12-12T18:21:53.379Z,78.06
2018-12-12T18:24:20.959Z,77.73
2018-12-12T18:26:50.233Z,78.18
2018-12-12T18:29:17.785Z,77.34
2018-12-12T18:31:45.373Z,77.46
2018-12-12T18:34:13.004Z,76.46
2018-12-12T18:36:40.769Z,76.41
2018-12-12T18:39:08.441Z,76.25
2018-12-12T18:41:36.169Z,76.39
2018-12-12T18:44:03.958Z,76.16
2018-12-12T18:46:31.691Z,76.75
2018-12-12T18:48:59.382Z,75.84
2018-12-12T18:51:27.166Z,75.70
2018-12-12T18:53:54.700Z,76.24
2018-12-12T18:56:22.182Z,75.89
2018-12-12T18:58:49.748Z,76.02
2018-12-12T19:01:17.269Z,75.66
2018-12-12T19:03:44.945Z,76.70
2018-12-12T19:06:12.726Z,75.93
2018-12-12T19:08:40.397Z,74.82
2018-12-12T19:11:07.944Z,75.71
2018-12-12T19:13:35.475Z,75.97
2018-12-12T19:16:03.210Z,76.14
2018-12-12T19:18:31.022Z,75.27
2018-12-12T19:21:00.178Z,74.76
2018-12-12T19:23:28.186Z,74.57
2018-12-12T19:25:55.890Z,75.25
2018-12-12T19:28:23.915Z,75.40
2018-12-12T19:30:51.604Z,76.06
2018-12-12T19:33:19.280Z,76.34
2018-12-12T19:35:46.994Z,76.36
2018-12-12T19:38:14.641Z,76.49
2018-12-12T19:40:42.251Z,76.64
2018-12-12T19:43:09.876Z,76.36
2018-12-12T19:45:38.484Z,76.63
2018-12-12T19:48:06.124Z,77.03
2018-12-12T19:50:33.709Z,77.57
2018-12-12T19:53:14.291Z,77.44
2018-12-12T19:55:42.376Z,77.74
2018-12-12T19:58:10.131Z,78.33
2018-12-12T20:00:38.150Z,78.24
2018-12-12T20:03:05.789Z,78.90
2018-12-12T20:05:33.406Z,78.93
2018-12-12T20:08:01.094Z,78.76
2018-12-12T20:10:28.921Z,79.32
2018-12-12T20:12:56.552Z,79.88
2018-12-12T20:15:29.584Z,80.33
2018-12-12T20:17:57.319Z,80.60
2018-12-12T20:20:25.046Z,81.08
2018-12-12T20:22:52.870Z,81.49
2018-12-12T20:25:20.583Z,81.32
2018-12-12T20:27:48.836Z,81.01
2018-12-12T20:30:16.491Z,81.16
2018-12-12T20:32:45.006Z,80.79
2018-12-12T20:35:12.758Z,80.99
2018-12-12T20:37:40.508Z,80.47
2018-12-12T20:40:08.237Z,80.35
2018-12-12T20:42:35.814Z,79.68
2018-12-12T20:45:03.711Z,79.52
2018-12-12T20:47:31.486Z,79.78
2018-12-12T20:49:59.214Z,79.45
2018-12-12T20:52:26.927Z,79.23
2018-12-12T20:54:54.550Z,79.55
2018-12-12T20:57:22.226Z,79.40
2018-12-12T20:59:49.775Z,79.31
2018-12-12T21:02:17.336Z,79.66
2018-12-12T21:04:44.870Z,79.75
2018-12-12T21:07:12.652Z,80.03
2018-12-12T21:09:40.323Z,80.21
2018-12-12T21:12:08.024Z,80.56
2018-12-12T21:14:36.506Z,80.04
2018-12-12T21:17:04.064Z,80.47
2018-12-12T21:19:31.695Z,81.10
2018-12-12T21:21:59.350Z,80.72
2018-12-12T21:24:27.050Z,81.13
2018-12-12T21:26:54.770Z,80.95
2018-12-12T21:29:22.335Z,81.52
2018-12-12T21:31:50.259Z,81.24
2018-12-12T21:34:17.893Z,81.54
2018-12-12T21:36:45.379Z,81.90
2018-12-12T21:39:13.063Z,81.70
2018-12-12T21:41:40.706Z,81.89
2018-12-12T21:44:30.888Z,81.63
2018-12-12T21:46:58.482Z,82.49
2018-12-12T21:49:26.009Z,82.81
2018-12-12T21:51:53.813Z,83.18
2018-12-12T21:54:21.652Z,83.59
2018-12-12T21:56:49.427Z,84.17
2018-12-12T21:59:17.177Z,84.15
2018-12-12T22:01:44.712Z,83.32
2018-12-12T22:04:12.757Z,83.58
2018-12-12T22:06:40.460Z,83.62
2018-12-12T22:09:08.590Z,83.93
2018-12-12T22:11:36.109Z,84.41
2018-12-12T22:14:03.944Z,84.58
2018-12-12T22:16:31.654Z,84.95
2018-12-12T22:22:04.479Z,86.17
2018-12-12T22:27:50.130Z,87.45
2018-12-12T22:40:56.707Z,90.84
2018-12-12T22:43:24.321Z,91.49
2018-12-12T22:45:51.954Z,91.66
2018-12-12T22:48:20.777Z,91.69
2018-12-12T22:50:48.564Z,92.63
2018-12-12T22:53:16.102Z,92.75
2018-12-12T22:55:43.677Z,92.69
2018-12-12T22:58:11.474Z,92.75
2018-12-12T23:00:39.317Z,92.70
2018-12-12T23:03:06.952Z,93.14
2018-12-12T23:05:34.610Z,93.14
2018-12-12T23:08:02.240Z,93.40
2018-12-12T23:10:29.862Z,93.15
2018-12-12T23:12:57.405Z,93.14
2018-12-12T23:15:25.294Z,93.30
2018-12-12T23:17:52.849Z,93.55
2018-12-12T23:20:20.847Z,93.41
2018-12-12T23:22:48.449Z,93.27
2018-12-12T23:25:16.259Z,93.02
2018-12-12T23:27:43.912Z,92.93
2018-12-12T23:30:11.471Z,93.16
2018-12-12T23:32:39.388Z,93.87
2018-12-12T23:35:07.260Z,92.96
2018-12-12T23:37:34.882Z,93.16
2018-12-12T23:40:02.946Z,92.51
2018-12-12T23:42:30.489Z,92.05
2018-12-12T23:44:58.032Z,92.48
2018-12-12T23:47:25.592Z,91.52
2018-12-12T23:49:53.271Z,92.03
2018-12-12T23:52:20.953Z,92.77
2018-12-12T23:54:48.655Z,92.86
2018-12-12T23:57:16.264Z,93.03
2018-12-12T23:59:43.835Z,92.88
